sensor_id;sensor_type;location;lat;lon;timestamp;temperature;humidity
63219;DHT22;49320;52.512;13.448;2023-05-10T00:00:20;16.10;45.00
63219;DHT22;49320;52.512;13.448;2023-05-10T00:02:49;16.30;45.10
63219;DHT22;49320;52.512;13.448;2023-05-10T00:05:16;16.00;45.00
63219;DHT22;49320;52.512;13.448;2023-05-10T00:07:43;16.00;45.00
63219;DHT22;49320;52.512;13.448;2023-05-10T00:10:11;16.00;45.10
63219;DHT22;49320;52.512;13.448;2023-05-10T00:15:07;15.90;44.90
63219;DHT22;49320;52.512;13.448;2023-05-10T00:17:34;15.90;45.50
63219;DHT22;49320;52.512;13.448;2023-05-10T00:20:01;15.90;45.50
63219;DHT22;49320;52.512;13.448;2023-05-10T00:22:28;15.80;45.70
63219;DHT22;49320;52.512;13.448;2023-05-10T00:24:55;15.80;45.60
63219;DHT22;49320;52.512;13.448;2023-05-10T00:27:22;15.80;46.20
63219;DHT22;49320;52.512;13.448;2023-05-10T00:29:48;15.80;46.10
63219;DHT22;49320;52.512;13.448;2023-05-10T00:32:15;15.70;45.80
63219;DHT22;49320;52.512;13.448;2023-05-10T00:34:43;15.70;45.80
63219;DHT22;49320;52.512;13.448;2023-05-10T00:37:09;15.70;45.90
63219;DHT22;49320;52.512;13.448;2023-05-10T00:39:36;15.60;46.00
63219;DHT22;49320;52.512;13.448;2023-05-10T00:42:03;15.60;46.00
63219;DHT22;49320;52.512;13.448;2023-05-10T00:44:30;15.50;45.50
63219;DHT22;49320;52.512;13.448;2023-05-10T00:46:58;15.50;46.20
63219;DHT22;49320;52.512;13.448;2023-05-10T00:49:25;15.40;46.00
63219;DHT22;49320;52.512;13.448;2023-05-10T00:51:53;15.40;46.10
63219;DHT22;49320;52.512;13.448;2023-05-10T00:54:20;15.40;46.40
63219;DHT22;49320;52.512;13.448;2023-05-10T00:56:47;15.20;46.40
63219;DHT22;49320;52.512;13.448;2023-05-10T00:59:16;15.30;47.00
63219;DHT22;49320;52.512;13.448;2023-05-10T01:01:44;15.20;46.50
63219;DHT22;49320;52.512;13.448;2023-05-10T01:04:13;15.20;46.60
63219;DHT22;49320;52.512;13.448;2023-05-10T01:06:41;15.20;46.80
63219;DHT22;49320;52.512;13.448;2023-05-10T01:09:08;15.10;47.00
63219;DHT22;49320;52.512;13.448;2023-05-10T01:11:38;15.10;47.00
63219;DHT22;49320;52.512;13.448;2023-05-10T01:14:06;15.00;47.10
63219;DHT22;49320;52.512;13.448;2023-05-10T01:16:40;14.90;47.20
63219;DHT22;49320;52.512;13.448;2023-05-10T01:19:19;14.90;48.00
63219;DHT22;49320;52.512;13.448;2023-05-10T01:28:23;14.70;47.50
63219;DHT22;49320;52.512;13.448;2023-05-10T01:31:51;14.70;47.80
63219;DHT22;49320;52.512;13.448;2023-05-10T01:34:53;14.60;48.10
63219;DHT22;49320;52.512;13.448;2023-05-10T01:37:40;14.60;47.90
63219;DHT22;49320;52.512;13.448;2023-05-10T01:40:48;14.60;48.10
63219;DHT22;49320;52.512;13.448;2023-05-10T01:43:32;14.40;48.50
63219;DHT22;49320;52.512;13.448;2023-05-10T01:46:10;14.40;48.50
63219;DHT22;49320;52.512;13.448;2023-05-10T01:48:52;14.30;47.80
63219;DHT22;49320;52.512;13.448;2023-05-10T01:51:24;14.30;48.70
63219;DHT22;49320;52.512;13.448;2023-05-10T01:54:00;14.30;48.60
63219;DHT22;49320;52.512;13.448;2023-05-10T01:56:30;14.20;48.50
63219;DHT22;49320;52.512;13.448;2023-05-10T01:59:00;14.20;48.70
63219;DHT22;49320;52.512;13.448;2023-05-10T02:01:34;14.20;48.80
63219;DHT22;49320;52.512;13.448;2023-05-10T02:04:05;14.20;48.70
63219;DHT22;49320;52.512;13.448;2023-05-10T02:06:34;14.10;49.00
63219;DHT22;49320;52.512;13.448;2023-05-10T02:09:03;14.20;48.90
63219;DHT22;49320;52.512;13.448;2023-05-10T02:11:31;14.10;49.20
63219;DHT22;49320;52.512;13.448;2023-05-10T02:14:00;13.90;48.60
63219;DHT22;49320;52.512;13.448;2023-05-10T02:16:28;14.00;49.50
63219;DHT22;49320;52.512;13.448;2023-05-10T02:18:59;14.00;49.40
63219;DHT22;49320;52.512;13.448;2023-05-10T02:21:29;14.00;49.30
63219;DHT22;49320;52.512;13.448;2023-05-10T02:23:59;14.00;49.50
63219;DHT22;49320;52.512;13.448;2023-05-10T02:26:29;14.00;49.60
63219;DHT22;49320;52.512;13.448;2023-05-10T02:28:58;13.90;49.00
63219;DHT22;49320;52.512;13.448;2023-05-10T02:31:27;13.90;49.50
63219;DHT22;49320;52.512;13.448;2023-05-10T02:33:56;13.90;49.60
63219;DHT22;49320;52.512;13.448;2023-05-10T02:36:24;13.90;50.00
63219;DHT22;49320;52.512;13.448;2023-05-10T02:38:54;13.90;49.80
63219;DHT22;49320;52.512;13.448;2023-05-10T02:41:22;13.90;50.00
63219;DHT22;49320;52.512;13.448;2023-05-10T02:43:51;13.80;49.20
63219;DHT22;49320;52.512;13.448;2023-05-10T02:46:18;13.80;50.40
63219;DHT22;49320;52.512;13.448;2023-05-10T02:48:45;13.80;50.10
63219;DHT22;49320;52.512;13.448;2023-05-10T02:51:14;13.80;50.20
63219;DHT22;49320;52.512;13.448;2023-05-10T02:53:46;13.80;50.10
63219;DHT22;49320;52.512;13.448;2023-05-10T02:56:23;13.80;49.90
63219;DHT22;49320;52.512;13.448;2023-05-10T02:59:00;13.70;49.90
63219;DHT22;49320;52.512;13.448;2023-05-10T03:01:27;13.70;50.00
63219;DHT22;49320;52.512;13.448;2023-05-10T03:03:54;13.70;50.00
63219;DHT22;49320;52.512;13.448;2023-05-10T03:06:21;13.70;50.30
63219;DHT22;49320;52.512;13.448;2023-05-10T03:20:08;13.50;51.10
63219;DHT22;49320;52.512;13.448;2023-05-10T03:22:51;13.50;50.80
63219;DHT22;49320;52.512;13.448;2023-05-10T03:25:23;13.50;50.70
63219;DHT22;49320;52.512;13.448;2023-05-10T03:27:51;13.40;50.80
63219;DHT22;49320;52.512;13.448;2023-05-10T03:30:19;13.40;50.80
63219;DHT22;49320;52.512;13.448;2023-05-10T03:32:46;13.40;50.80
63219;DHT22;49320;52.512;13.448;2023-05-10T03:35:13;13.30;50.20
63219;DHT22;49320;52.512;13.448;2023-05-10T03:37:40;13.30;50.20
63219;DHT22;49320;52.512;13.448;2023-05-10T03:40:08;13.40;50.70
63219;DHT22;49320;52.512;13.448;2023-05-10T03:42:36;13.30;50.70
63219;DHT22;49320;52.512;13.448;2023-05-10T03:45:03;13.30;51.30
63219;DHT22;49320;52.512;13.448;2023-05-10T03:47:30;13.30;51.80
63219;DHT22;49320;52.512;13.448;2023-05-10T03:49:57;13.30;50.40
63219;DHT22;49320;52.512;13.448;2023-05-10T03:52:23;13.30;50.90
63219;DHT22;49320;52.512;13.448;2023-05-10T03:57:17;13.30;50.60
63219;DHT22;49320;52.512;13.448;2023-05-10T04:02:12;13.30;50.60
63219;DHT22;49320;52.512;13.448;2023-05-10T04:04:38;13.30;51.20
63219;DHT22;49320;52.512;13.448;2023-05-10T04:07:05;13.30;51.20
63219;DHT22;49320;52.512;13.448;2023-05-10T04:09:32;13.30;51.20
63219;DHT22;49320;52.512;13.448;2023-05-10T04:11:59;13.30;51.00
63219;DHT22;49320;52.512;13.448;2023-05-10T04:14:28;13.40;51.20
63219;DHT22;49320;52.512;13.448;2023-05-10T04:19:23;13.40;50.50
63219;DHT22;49320;52.512;13.448;2023-05-10T04:21:50;13.40;51.20
63219;DHT22;49320;52.512;13.448;2023-05-10T04:24:16;13.40;51.30
63219;DHT22;49320;52.512;13.448;2023-05-10T04:29:11;13.40;50.70
63219;DHT22;49320;52.512;13.448;2023-05-10T04:31:37;13.50;51.30
63219;DHT22;49320;52.512;13.448;2023-05-10T04:36:32;13.50;50.70
63219;DHT22;49320;52.512;13.448;2023-05-10T04:39:03;13.60;51.10
63219;DHT22;49320;52.512;13.448;2023-05-10T04:41:30;13.60;51.20
63219;DHT22;49320;52.512;13.448;2023-05-10T04:43:57;13.70;51.10
63219;DHT22;49320;52.512;13.448;2023-05-10T04:46:24;13.70;51.10
63219;DHT22;49320;52.512;13.448;2023-05-10T04:48:51;13.70;51.10
63219;DHT22;49320;52.512;13.448;2023-05-10T04:51:18;13.80;51.30
63219;DHT22;49320;52.512;13.448;2023-05-10T04:53:44;13.80;51.00
63219;DHT22;49320;52.512;13.448;2023-05-10T04:56:27;13.80;51.00
63219;DHT22;49320;52.512;13.448;2023-05-10T04:58:54;13.90;51.00
63219;DHT22;49320;52.512;13.448;2023-05-10T05:01:21;14.00;51.20
63219;DHT22;49320;52.512;13.448;2023-05-10T05:03:49;14.10;50.70
63219;DHT22;49320;52.512;13.448;2023-05-10T05:06:17;14.10;51.00
63219;DHT22;49320;52.512;13.448;2023-05-10T05:08:43;14.20;50.70
63219;DHT22;49320;52.512;13.448;2023-05-10T05:11:10;14.20;51.00
63219;DHT22;49320;52.512;13.448;2023-05-10T05:13:37;14.30;50.90
63219;DHT22;49320;52.512;13.448;2023-05-10T05:16:04;14.30;50.90
63219;DHT22;49320;52.512;13.448;2023-05-10T05:18:31;14.40;51.40
63219;DHT22;49320;52.512;13.448;2023-05-10T05:20:58;14.40;50.90
63219;DHT22;49320;52.512;13.448;2023-05-10T05:23:25;14.50;50.90
63219;DHT22;49320;52.512;13.448;2023-05-10T05:25:52;14.70;51.00
63219;DHT22;49320;52.512;13.448;2023-05-10T05:28:20;14.80;50.70
63219;DHT22;49320;52.512;13.448;2023-05-10T05:30:47;15.00;50.90
63219;DHT22;49320;52.512;13.448;2023-05-10T05:33:14;15.20;50.70
63219;DHT22;49320;52.512;13.448;2023-05-10T05:35:44;15.40;50.70
63219;DHT22;49320;52.512;13.448;2023-05-10T05:38:17;15.70;50.40
63219;DHT22;49320;52.512;13.448;2023-05-10T05:40:45;15.90;50.20
63219;DHT22;49320;52.512;13.448;2023-05-10T05:43:11;16.10;49.40
63219;DHT22;49320;52.512;13.448;2023-05-10T05:45:38;16.40;49.80
63219;DHT22;49320;52.512;13.448;2023-05-10T05:48:05;16.60;49.60
63219;DHT22;49320;52.512;13.448;2023-05-10T05:50:32;16.70;49.30
63219;DHT22;49320;52.512;13.448;2023-05-10T05:52:59;16.90;49.10
63219;DHT22;49320;52.512;13.448;2023-05-10T05:55:25;17.20;48.90
63219;DHT22;49320;52.512;13.448;2023-05-10T05:57:52;17.20;48.70
63219;DHT22;49320;52.512;13.448;2023-05-10T06:00:20;17.20;48.50
63219;DHT22;49320;52.512;13.448;2023-05-10T06:02:48;17.40;48.40
63219;DHT22;49320;52.512;13.448;2023-05-10T06:05:15;17.70;48.40
63219;DHT22;49320;52.512;13.448;2023-05-10T06:10:10;17.70;47.50
63219;DHT22;49320;52.512;13.448;2023-05-10T06:12:37;17.80;47.90
63219;DHT22;49320;52.512;13.448;2023-05-10T06:15:04;18.00;47.30
63219;DHT22;49320;52.512;13.448;2023-05-10T06:17:31;18.00;47.80
63219;DHT22;49320;52.512;13.448;2023-05-10T06:19:58;18.10;47.60
63219;DHT22;49320;52.512;13.448;2023-05-10T06:22:25;18.20;47.40
63219;DHT22;49320;52.512;13.448;2023-05-10T06:24:51;18.20;47.30
63219;DHT22;49320;52.512;13.448;2023-05-10T06:27:18;18.40;46.60
63219;DHT22;49320;52.512;13.448;2023-05-10T06:29:45;18.40;47.20
63219;DHT22;49320;52.512;13.448;2023-05-10T06:32:12;18.50;47.20
63219;DHT22;49320;52.512;13.448;2023-05-10T06:34:39;18.50;46.90
63219;DHT22;49320;52.512;13.448;2023-05-10T06:37:05;18.60;46.80
63219;DHT22;49320;52.512;13.448;2023-05-10T06:39:32;18.60;46.70
63219;DHT22;49320;52.512;13.448;2023-05-10T06:41:59;18.70;46.70
63219;DHT22;49320;52.512;13.448;2023-05-10T06:44:26;18.70;46.70
63219;DHT22;49320;52.512;13.448;2023-05-10T06:46:53;18.70;46.00
63219;DHT22;49320;52.512;13.448;2023-05-10T06:51:49;18.80;46.10
63219;DHT22;49320;52.512;13.448;2023-05-10T06:54:15;18.80;45.90
63219;DHT22;49320;52.512;13.448;2023-05-10T06:56:43;18.90;46.50
63219;DHT22;49320;52.512;13.448;2023-05-10T06:59:09;18.90;46.40
63219;DHT22;49320;52.512;13.448;2023-05-10T07:01:36;18.90;45.90
63219;DHT22;49320;52.512;13.448;2023-05-10T07:04:03;18.90;46.30
63219;DHT22;49320;52.512;13.448;2023-05-10T07:06:30;19.00;46.20
63219;DHT22;49320;52.512;13.448;2023-05-10T07:09:00;19.00;46.20
63219;DHT22;49320;52.512;13.448;2023-05-10T07:11:27;19.00;46.10
63219;DHT22;49320;52.512;13.448;2023-05-10T07:13:54;19.10;46.10
63219;DHT22;49320;52.512;13.448;2023-05-10T07:16:21;19.10;46.10
63219;DHT22;49320;52.512;13.448;2023-05-10T07:18:48;19.10;46.10
63219;DHT22;49320;52.512;13.448;2023-05-10T07:21:16;19.10;46.00
63219;DHT22;49320;52.512;13.448;2023-05-10T07:23:43;19.20;46.00
63219;DHT22;49320;52.512;13.448;2023-05-10T07:26:10;19.20;45.90
63219;DHT22;49320;52.512;13.448;2023-05-10T07:28:38;19.30;45.30
63219;DHT22;49320;52.512;13.448;2023-05-10T07:31:05;19.30;45.90
63219;DHT22;49320;52.512;13.448;2023-05-10T07:33:32;19.30;45.90
63219;DHT22;49320;52.512;13.448;2023-05-10T07:35:59;19.40;45.90
63219;DHT22;49320;52.512;13.448;2023-05-10T07:38:25;19.40;45.90
63219;DHT22;49320;52.512;13.448;2023-05-10T07:40:52;19.40;45.20
63219;DHT22;49320;52.512;13.448;2023-05-10T07:43:19;19.50;45.80
63219;DHT22;49320;52.512;13.448;2023-05-10T07:45:46;19.60;45.80
63219;DHT22;49320;52.512;13.448;2023-05-10T07:48:13;19.60;45.80
63219;DHT22;49320;52.512;13.448;2023-05-10T07:50:40;19.70;45.60
63219;DHT22;49320;52.512;13.448;2023-05-10T07:53:06;19.80;45.50
63219;DHT22;49320;52.512;13.448;2023-05-10T07:55:34;19.80;45.50
63219;DHT22;49320;52.512;13.448;2023-05-10T07:58:01;19.90;45.50
63219;DHT22;49320;52.512;13.448;2023-05-10T08:00:27;19.90;45.40
63219;DHT22;49320;52.512;13.448;2023-05-10T08:02:54;20.00;45.40
63219;DHT22;49320;52.512;13.448;2023-05-10T08:05:22;20.00;45.40
63219;DHT22;49320;52.512;13.448;2023-05-10T08:07:48;20.10;44.90
63219;DHT22;49320;52.512;13.448;2023-05-10T08:10:15;20.20;45.30
63219;DHT22;49320;52.512;13.448;2023-05-10T08:12:43;20.10;45.20
63219;DHT22;49320;52.512;13.448;2023-05-10T08:15:10;20.20;45.20
63219;DHT22;49320;52.512;13.448;2023-05-10T08:17:37;20.40;44.70
63219;DHT22;49320;52.512;13.448;2023-05-10T08:20:04;20.50;45.20
63219;DHT22;49320;52.512;13.448;2023-05-10T08:22:31;20.40;44.40
63219;DHT22;49320;52.512;13.448;2023-05-10T08:24:58;20.50;45.00
63219;DHT22;49320;52.512;13.448;2023-05-10T08:27:25;20.60;44.20
63219;DHT22;49320;52.512;13.448;2023-05-10T08:29:51;20.70;44.80
63219;DHT22;49320;52.512;13.448;2023-05-10T08:32:18;20.70;44.60
63219;DHT22;49320;52.512;13.448;2023-05-10T08:34:45;20.80;44.60
63219;DHT22;49320;52.512;13.448;2023-05-10T08:37:12;20.80;44.60
63219;DHT22;49320;52.512;13.448;2023-05-10T08:39:40;20.90;44.40
63219;DHT22;49320;52.512;13.448;2023-05-10T08:42:07;20.90;44.40
63219;DHT22;49320;52.512;13.448;2023-05-10T08:44:36;21.00;44.80
63219;DHT22;49320;52.512;13.448;2023-05-10T08:47:06;21.00;44.10
63219;DHT22;49320;52.512;13.448;2023-05-10T08:49:34;21.10;44.20
63219;DHT22;49320;52.512;13.448;2023-05-10T08:52:03;21.20;44.30
63219;DHT22;49320;52.512;13.448;2023-05-10T08:54:32;21.20;43.70
63219;DHT22;49320;52.512;13.448;2023-05-10T08:56:59;21.20;44.10
63219;DHT22;49320;52.512;13.448;2023-05-10T08:59:27;21.30;44.00
63219;DHT22;49320;52.512;13.448;2023-05-10T09:01:57;21.40;43.70
63219;DHT22;49320;52.512;13.448;2023-05-10T09:04:25;21.40;43.60
63219;DHT22;49320;52.512;13.448;2023-05-10T09:06:53;21.50;44.20
63219;DHT22;49320;52.512;13.448;2023-05-10T09:09:20;21.50;43.60
63219;DHT22;49320;52.512;13.448;2023-05-10T09:11:48;21.60;43.60
63219;DHT22;49320;52.512;13.448;2023-05-10T09:14:15;21.60;42.80
63219;DHT22;49320;52.512;13.448;2023-05-10T09:16:43;21.60;43.40
63219;DHT22;49320;52.512;13.448;2023-05-10T09:19:10;21.70;43.40
63219;DHT22;49320;52.512;13.448;2023-05-10T09:21:38;21.80;43.20
63219;DHT22;49320;52.512;13.448;2023-05-10T09:24:06;21.80;43.20
63219;DHT22;49320;52.512;13.448;2023-05-10T09:26:34;21.90;42.70
63219;DHT22;49320;52.512;13.448;2023-05-10T09:29:03;21.90;43.10
63219;DHT22;49320;52.512;13.448;2023-05-10T09:31:47;21.90;42.80
63219;DHT22;49320;52.512;13.448;2023-05-10T09:34:19;22.00;42.60
63219;DHT22;49320;52.512;13.448;2023-05-10T09:36:51;22.00;41.90
63219;DHT22;49320;52.512;13.448;2023-05-10T09:39:33;22.00;42.70
63219;DHT22;49320;52.512;13.448;2023-05-10T09:42:03;22.10;42.80
63219;DHT22;49320;52.512;13.448;2023-05-10T09:44:35;22.10;42.70
63219;DHT22;49320;52.512;13.448;2023-05-10T09:47:03;22.20;42.70
63219;DHT22;49320;52.512;13.448;2023-05-10T09:49:30;22.30;42.80
63219;DHT22;49320;52.512;13.448;2023-05-10T09:52:00;22.30;42.70
63219;DHT22;49320;52.512;13.448;2023-05-10T09:54:27;22.40;42.70
63219;DHT22;49320;52.512;13.448;2023-05-10T09:56:54;22.50;42.60
63219;DHT22;49320;52.512;13.448;2023-05-10T09:59:21;22.60;42.60
63219;DHT22;49320;52.512;13.448;2023-05-10T10:01:53;22.60;42.50
63219;DHT22;49320;52.512;13.448;2023-05-10T10:04:22;22.70;42.40
63219;DHT22;49320;52.512;13.448;2023-05-10T10:07:03;22.80;42.00
63219;DHT22;49320;52.512;13.448;2023-05-10T10:09:31;22.90;41.90
63219;DHT22;49320;52.512;13.448;2023-05-10T10:12:01;22.90;41.80
63219;DHT22;49320;52.512;13.448;2023-05-10T10:14:29;23.00;41.60
63219;DHT22;49320;52.512;13.448;2023-05-10T10:16:56;23.10;41.60
63219;DHT22;49320;52.512;13.448;2023-05-10T10:19:34;23.10;41.50
63219;DHT22;49320;52.512;13.448;2023-05-10T10:22:03;23.10;41.60
63219;DHT22;49320;52.512;13.448;2023-05-10T10:24:29;23.10;41.30
63219;DHT22;49320;52.512;13.448;2023-05-10T10:27:09;22.70;41.10
63219;DHT22;49320;52.512;13.448;2023-05-10T10:29:50;23.30;41.40
63219;DHT22;49320;52.512;13.448;2023-05-10T10:32:37;23.30;41.40
63219;DHT22;49320;52.512;13.448;2023-05-10T10:35:22;23.30;41.40
63219;DHT22;49320;52.512;13.448;2023-05-10T10:37:50;23.40;41.40
63219;DHT22;49320;52.512;13.448;2023-05-10T10:40:25;23.40;41.20
63219;DHT22;49320;52.512;13.448;2023-05-10T10:42:52;23.50;41.20
63219;DHT22;49320;52.512;13.448;2023-05-10T10:45:20;23.60;40.60
63219;DHT22;49320;52.512;13.448;2023-05-10T10:47:48;23.60;41.20
63219;DHT22;49320;52.512;13.448;2023-05-10T10:50:16;23.80;41.20
63219;DHT22;49320;52.512;13.448;2023-05-10T10:52:43;23.70;40.90
63219;DHT22;49320;52.512;13.448;2023-05-10T10:55:19;23.90;40.70
63219;DHT22;49320;52.512;13.448;2023-05-10T10:57:53;23.90;40.80
63219;DHT22;49320;52.512;13.448;2023-05-10T11:00:31;23.90;40.90
63219;DHT22;49320;52.512;13.448;2023-05-10T11:03:06;24.00;40.60
63219;DHT22;49320;52.512;13.448;2023-05-10T11:05:41;24.00;40.50
63219;DHT22;49320;52.512;13.448;2023-05-10T11:13:34;24.20;40.00
63219;DHT22;49320;52.512;13.448;2023-05-10T11:21:31;24.20;40.00
63219;DHT22;49320;52.512;13.448;2023-05-10T11:24:00;24.30;40.10
63219;DHT22;49320;52.512;13.448;2023-05-10T11:26:34;24.40;39.50
63219;DHT22;49320;52.512;13.448;2023-05-10T11:29:02;24.40;40.10
63219;DHT22;49320;52.512;13.448;2023-05-10T11:31:30;24.40;40.10
63219;DHT22;49320;52.512;13.448;2023-05-10T11:33:59;24.50;39.10
63219;DHT22;49320;52.512;13.448;2023-05-10T11:36:31;24.50;38.80
63219;DHT22;49320;52.512;13.448;2023-05-10T11:39:00;24.60;39.50
63219;DHT22;49320;52.512;13.448;2023-05-10T11:41:29;24.70;39.60
63219;DHT22;49320;52.512;13.448;2023-05-10T11:43:57;24.70;39.60
63219;DHT22;49320;52.512;13.448;2023-05-10T11:46:26;24.70;39.50
63219;DHT22;49320;52.512;13.448;2023-05-10T11:48:58;24.80;39.40
63219;DHT22;49320;52.512;13.448;2023-05-10T11:51:28;24.80;39.20
63219;DHT22;49320;52.512;13.448;2023-05-10T11:53:56;24.90;39.30
63219;DHT22;49320;52.512;13.448;2023-05-10T11:56:23;24.90;39.20
63219;DHT22;49320;52.512;13.448;2023-05-10T11:58:54;24.90;39.10
63219;DHT22;49320;52.512;13.448;2023-05-10T12:01:23;25.00;38.90
63219;DHT22;49320;52.512;13.448;2023-05-10T12:03:53;25.00;38.70
63219;DHT22;49320;52.512;13.448;2023-05-10T12:06:22;25.10;38.50
63219;DHT22;49320;52.512;13.448;2023-05-10T12:08:49;25.10;38.60
63219;DHT22;49320;52.512;13.448;2023-05-10T12:11:19;25.10;38.70
63219;DHT22;49320;52.512;13.448;2023-05-10T12:13:48;25.20;38.60
63219;DHT22;49320;52.512;13.448;2023-05-10T12:16:24;25.20;38.50
63219;DHT22;49320;52.512;13.448;2023-05-10T12:18:55;25.30;38.60
63219;DHT22;49320;52.512;13.448;2023-05-10T12:21:24;25.30;38.50
63219;DHT22;49320;52.512;13.448;2023-05-10T12:23:54;25.40;38.20
63219;DHT22;49320;52.512;13.448;2023-05-10T12:26:25;25.50;37.60
63219;DHT22;49320;52.512;13.448;2023-05-10T12:28:53;25.50;38.20
63219;DHT22;49320;52.512;13.448;2023-05-10T12:31:21;25.50;38.20
63219;DHT22;49320;52.512;13.448;2023-05-10T12:33:47;25.60;37.40
63219;DHT22;49320;52.512;13.448;2023-05-10T12:36:16;25.50;37.50
63219;DHT22;49320;52.512;13.448;2023-05-10T12:38:44;25.60;37.60
63219;DHT22;49320;52.512;13.448;2023-05-10T12:41:16;25.60;37.70
63219;DHT22;49320;52.512;13.448;2023-05-10T12:43:44;25.70;37.70
63219;DHT22;49320;52.512;13.448;2023-05-10T12:46:17;25.70;37.60
63219;DHT22;49320;52.512;13.448;2023-05-10T12:48:46;25.80;37.40
63219;DHT22;49320;52.512;13.448;2023-05-10T12:51:23;25.80;37.60
63219;DHT22;49320;52.512;13.448;2023-05-10T12:53:49;25.80;37.50
63219;DHT22;49320;52.512;13.448;2023-05-10T12:56:16;25.80;37.30
63219;DHT22;49320;52.512;13.448;2023-05-10T12:58:43;25.90;37.10
63219;DHT22;49320;52.512;13.448;2023-05-10T13:01:14;25.90;37.00
63219;DHT22;49320;52.512;13.448;2023-05-10T13:03:41;25.90;37.10
63219;DHT22;49320;52.512;13.448;2023-05-10T13:08:37;26.00;36.60
63219;DHT22;49320;52.512;13.448;2023-05-10T13:11:05;26.00;37.30
63219;DHT22;49320;52.512;13.448;2023-05-10T13:13:32;26.00;37.20
63219;DHT22;49320;52.512;13.448;2023-05-10T13:15:59;26.10;37.10
63219;DHT22;49320;52.512;13.448;2023-05-10T13:18:26;26.10;36.50
63219;DHT22;49320;52.512;13.448;2023-05-10T13:20:53;26.10;36.90
63219;DHT22;49320;52.512;13.448;2023-05-10T13:23:20;26.10;36.40
63219;DHT22;49320;52.512;13.448;2023-05-10T13:25:47;26.10;36.20
63219;DHT22;49320;52.512;13.448;2023-05-10T13:28:14;26.20;35.30
63219;DHT22;49320;52.512;13.448;2023-05-10T13:30:41;26.20;36.30
63219;DHT22;49320;52.512;13.448;2023-05-10T13:33:08;26.30;36.00
63219;DHT22;49320;52.512;13.448;2023-05-10T13:35:34;26.30;36.20
63219;DHT22;49320;52.512;13.448;2023-05-10T13:38:01;26.30;36.10
63219;DHT22;49320;52.512;13.448;2023-05-10T13:40:28;26.30;36.10
63219;DHT22;49320;52.512;13.448;2023-05-10T13:42:55;26.40;35.80
63219;DHT22;49320;52.512;13.448;2023-05-10T13:45:21;26.30;35.00
63219;DHT22;49320;52.512;13.448;2023-05-10T13:50:16;26.40;35.00
63219;DHT22;49320;52.512;13.448;2023-05-10T13:52:43;26.40;35.50
63219;DHT22;49320;52.512;13.448;2023-05-10T13:55:10;26.40;35.60
63219;DHT22;49320;52.512;13.448;2023-05-10T13:57:38;26.40;35.70
63219;DHT22;49320;52.512;13.448;2023-05-10T14:00:07;26.40;35.60
63219;DHT22;49320;52.512;13.448;2023-05-10T14:02:34;26.50;35.40
63219;DHT22;49320;52.512;13.448;2023-05-10T14:05:02;26.50;35.20
63219;DHT22;49320;52.512;13.448;2023-05-10T14:07:29;26.50;35.30
63219;DHT22;49320;52.512;13.448;2023-05-10T14:09:56;26.40;35.10
63219;DHT22;49320;52.512;13.448;2023-05-10T14:12:22;26.60;35.10
63219;DHT22;49320;52.512;13.448;2023-05-10T14:14:49;26.70;35.20
63219;DHT22;49320;52.512;13.448;2023-05-10T14:17:16;26.60;35.10
63219;DHT22;49320;52.512;13.448;2023-05-10T14:19:43;26.60;35.20
63219;DHT22;49320;52.512;13.448;2023-05-10T14:22:10;26.60;35.00
63219;DHT22;49320;52.512;13.448;2023-05-10T14:24:37;26.60;35.10
63219;DHT22;49320;52.512;13.448;2023-05-10T14:27:04;26.60;34.40
63219;DHT22;49320;52.512;13.448;2023-05-10T14:29:32;26.60;35.10
63219;DHT22;49320;52.512;13.448;2023-05-10T14:31:59;26.60;35.00
63219;DHT22;49320;52.512;13.448;2023-05-10T14:34:26;26.70;34.90
63219;DHT22;49320;52.512;13.448;2023-05-10T14:36:53;26.70;34.70
63219;DHT22;49320;52.512;13.448;2023-05-10T14:39:19;26.70;34.60
63219;DHT22;49320;52.512;13.448;2023-05-10T14:41:46;26.70;34.10
63219;DHT22;49320;52.512;13.448;2023-05-10T14:44:13;26.70;34.20
63219;DHT22;49320;52.512;13.448;2023-05-10T14:46:41;26.80;34.30
63219;DHT22;49320;52.512;13.448;2023-05-10T14:49:08;26.70;33.70
63219;DHT22;49320;52.512;13.448;2023-05-10T14:51:35;26.70;34.30
63219;DHT22;49320;52.512;13.448;2023-05-10T14:54:03;26.80;34.30
63219;DHT22;49320;52.512;13.448;2023-05-10T14:56:30;25.90;33.60
63219;DHT22;49320;52.512;13.448;2023-05-10T14:58:56;26.80;34.20
63219;DHT22;49320;52.512;13.448;2023-05-10T15:01:24;26.80;34.10
63219;DHT22;49320;52.512;13.448;2023-05-10T15:03:51;26.80;34.00
63219;DHT22;49320;52.512;13.448;2023-05-10T15:06:23;26.80;33.90
63219;DHT22;49320;52.512;13.448;2023-05-10T15:08:56;26.80;33.90
63219;DHT22;49320;52.512;13.448;2023-05-10T15:11:23;26.90;34.20
63219;DHT22;49320;52.512;13.448;2023-05-10T15:13:50;26.90;34.10
63219;DHT22;49320;52.512;13.448;2023-05-10T15:16:17;27.00;34.00
63219;DHT22;49320;52.512;13.448;2023-05-10T15:18:43;27.00;34.00
63219;DHT22;49320;52.512;13.448;2023-05-10T15:21:11;27.00;33.90
63219;DHT22;49320;52.512;13.448;2023-05-10T15:23:38;27.00;33.90
63219;DHT22;49320;52.512;13.448;2023-05-10T15:26:05;27.10;33.50
63219;DHT22;49320;52.512;13.448;2023-05-10T15:28:32;27.00;33.90
63219;DHT22;49320;52.512;13.448;2023-05-10T15:31:00;26.90;33.60
63219;DHT22;49320;52.512;13.448;2023-05-10T15:33:26;26.80;33.60
63219;DHT22;49320;52.512;13.448;2023-05-10T15:35:54;26.80;33.70
63219;DHT22;49320;52.512;13.448;2023-05-10T15:38:20;26.70;33.70
63219;DHT22;49320;52.512;13.448;2023-05-10T15:40:47;26.70;33.90
63219;DHT22;49320;52.512;13.448;2023-05-10T15:43:14;26.70;34.00
63219;DHT22;49320;52.512;13.448;2023-05-10T15:45:41;26.60;34.00
63219;DHT22;49320;52.512;13.448;2023-05-10T15:48:08;26.30;34.00
63219;DHT22;49320;52.512;13.448;2023-05-10T15:50:35;26.50;34.20
63219;DHT22;49320;52.512;13.448;2023-05-10T15:53:01;26.50;34.30
63219;DHT22;49320;52.512;13.448;2023-05-10T15:55:28;26.50;34.30
63219;DHT22;49320;52.512;13.448;2023-05-10T15:57:55;26.40;34.30
63219;DHT22;49320;52.512;13.448;2023-05-10T16:00:22;26.30;33.70
63219;DHT22;49320;52.512;13.448;2023-05-10T16:02:51;26.30;34.40
63219;DHT22;49320;52.512;13.448;2023-05-10T16:05:19;26.30;34.50
63219;DHT22;49320;52.512;13.448;2023-05-10T16:07:46;26.30;34.50
63219;DHT22;49320;52.512;13.448;2023-05-10T16:10:13;26.30;34.50
63219;DHT22;49320;52.512;13.448;2023-05-10T16:12:39;26.30;34.40
63219;DHT22;49320;52.512;13.448;2023-05-10T16:15:08;26.30;34.50
63219;DHT22;49320;52.512;13.448;2023-05-10T16:17:35;26.30;34.60